Terminal Aerodrome Forecast
Issued by NWS

Home | Current Version | Previous Version | Text Only | Print | Product List | Glossary On
Versions: 1 2 3 4 5 6 7 8 9 10 11 12 13 14 15 16 17 18 19 20 21 22
000
FTUS41 KBTV 242101 AAA
TAFPBG
TAF AMD
KPBG 242101Z 2421/2518 32006KT P6SM OVC035
     FM250000 VRB03KT P6SM BKN045 BKN130
     FM250300 00000KT P6SM SCT050 BKN150
     FM251400 17007KT P6SM SCT200=

USA.gov is the U.S. government's official web portal to all federal, state and local government web resources and services.